createdAt,value
2019-02-18T00:00:20.543Z,42.47
2019-02-18T00:03:05.024Z,33.17
2019-02-18T00:05:47.263Z,33.23
2019-02-18T00:08:26.539Z,35.67
2019-02-18T00:11:15.569Z,37.90
2019-02-18T00:13:55.886Z,45.50
2019-02-18T00:16:35.394Z,34.80
2019-02-18T00:19:15.089Z,34.63
2019-02-18T00:22:03.454Z,32.43
2019-02-18T00:24:46.057Z,34.30
2019-02-18T00:27:31.938Z,36.63
2019-02-18T00:30:12.315Z,40.93
2019-02-18T00:32:54.831Z,37.10
2019-02-18T00:35:40.242Z,39.83
2019-02-18T00:38:25.934Z,40.87
2019-02-18T00:41:10.235Z,43.20
2019-02-18T00:43:52.622Z,38.43
2019-02-18T00:46:37.021Z,41.20
2019-02-18T00:49:24.814Z,38.57
2019-02-18T00:52:06.758Z,43.30
2019-02-18T00:54:47.427Z,38.53
2019-02-18T00:57:29.109Z,36.67
2019-02-18T01:00:08.984Z,43.73
2019-02-18T01:02:49.936Z,40.63
2019-02-18T01:05:48.208Z,46.27
2019-02-18T01:08:31.173Z,49.83
2019-02-18T01:11:14.253Z,37.93
2019-02-18T01:13:56.567Z,36.87
2019-02-18T01:16:38.483Z,37.93
2019-02-18T01:19:32.787Z,45.67
2019-02-18T01:22:14.852Z,43.67
2019-02-18T01:25:04.473Z,41.50
2019-02-18T01:27:44.600Z,44.43
2019-02-18T01:30:26.558Z,49.90
2019-02-18T01:33:05.948Z,52.80
2019-02-18T01:35:49.644Z,54.93
2019-02-18T01:38:29.108Z,52.70
2019-02-18T01:41:09.377Z,51.03
2019-02-18T01:43:51.603Z,49.20
2019-02-18T01:46:43.638Z,49.53
2019-02-18T01:49:25.635Z,53.47
2019-02-18T01:52:08.942Z,46.77
2019-02-18T01:54:54.355Z,47.30
2019-02-18T01:57:34.481Z,48.97
2019-02-18T02:00:16.400Z,49.07
2019-02-18T02:03:00.737Z,47.00
2019-02-18T02:05:44.089Z,69.40
2019-02-18T02:08:24.487Z,71.63
2019-02-18T02:11:10.539Z,58.27
2019-02-18T02:13:50.118Z,54.50
2019-02-18T02:16:31.332Z,70.60
2019-02-18T02:19:14.868Z,53.80
2019-02-18T02:22:13.140Z,54.37
2019-02-18T02:24:55.554Z,50.70
2019-02-18T02:27:40.601Z,49.10
2019-02-18T02:30:36.700Z,44.67
2019-02-18T02:33:22.621Z,45.23
2019-02-18T02:36:05.754Z,46.97
2019-02-18T02:38:46.570Z,52.50
2019-02-18T02:41:31.151Z,47.50
2019-02-18T02:44:21.305Z,51.23
2019-02-18T02:47:01.031Z,50.43
2019-02-18T02:49:48.923Z,55.07
2019-02-18T02:52:38.792Z,47.07
2019-02-18T02:55:22.919Z,49.93
2019-02-18T02:58:07.338Z,48.03
2019-02-18T03:00:57.909Z,62.30
2019-02-18T03:03:43.477Z,54.20
2019-02-18T03:06:22.728Z,50.03
2019-02-18T03:09:09.211Z,52.10
2019-02-18T03:12:08.342Z,45.90
2019-02-18T03:14:49.925Z,48.50
2019-02-18T03:17:37.525Z,48.53
2019-02-18T03:20:28.841Z,50.50
2019-02-18T03:23:08.899Z,48.77
2019-02-18T03:25:52.475Z,46.53
2019-02-18T03:29:03.182Z,62.13
2019-02-18T03:31:46.119Z,54.27
2019-02-18T03:34:37.924Z,58.17
2019-02-18T03:37:27.834Z,51.80
2019-02-18T03:40:08.625Z,52.23
2019-02-18T03:43:02.879Z,53.90
2019-02-18T03:46:09.396Z,49.57
2019-02-18T03:48:55.186Z,59.97
2019-02-18T03:51:47.882Z,54.47
2019-02-18T03:54:31.573Z,52.23
2019-02-18T03:57:22.470Z,47.73
2019-02-18T04:00:11.355Z,57.23
2019-02-18T04:03:00.746Z,100.37
2019-02-18T04:05:54.758Z,91.23
2019-02-18T04:08:47.460Z,126.90
2019-02-18T04:11:28.386Z,182.90
2019-02-18T04:14:11.523Z,122.23
2019-02-18T04:16:59.853Z,84.17
2019-02-18T04:19:41.936Z,72.00
2019-02-18T04:22:23.181Z,84.37
2019-02-18T04:25:14.617Z,61.87
2019-02-18T04:28:00.116Z,134.10
2019-02-18T04:30:48.094Z,141.80
2019-02-18T04:33:36.851Z,158.57
2019-02-18T04:36:20.674Z,158.90
2019-02-18T04:39:21.271Z,145.33
2019-02-18T04:42:11.750Z,115.37
2019-02-18T04:44:59.314Z,60.40
2019-02-18T04:47:51.661Z,117.13
2019-02-18T04:50:40.171Z,71.77
2019-02-18T04:53:30.545Z,84.80
2019-02-18T04:56:19.157Z,124.27
2019-02-18T04:59:09.632Z,186.77
2019-02-18T05:01:56.493Z,183.30
2019-02-18T05:04:41.606Z,120.87
2019-02-18T05:07:29.521Z,77.77
2019-02-18T05:10:23.369Z,79.53
2019-02-18T05:13:21.704Z,64.37
2019-02-18T05:16:16.211Z,61.87
2019-02-18T05:19:13.951Z,50.07
2019-02-18T05:21:58.965Z,94.50
2019-02-18T05:24:50.985Z,116.93
2019-02-18T05:27:55.141Z,81.30
2019-02-18T05:31:02.093Z,110.53
2019-02-18T05:34:02.689Z,75.87
2019-02-18T05:37:01.833Z,50.87
2019-02-18T05:39:46.833Z,45.10
2019-02-18T05:42:38.913Z,51.03
2019-02-18T05:45:23.373Z,46.40
2019-02-18T05:48:08.155Z,74.13
2019-02-18T05:51:00.891Z,127.47
2019-02-18T05:53:54.674Z,65.57
2019-02-18T05:56:56.873Z,90.40
2019-02-18T06:00:00.385Z,73.97
2019-02-18T06:03:27.706Z,116.70
2019-02-18T06:06:18.436Z,53.33
2019-02-18T06:09:03.291Z,50.77
2019-02-18T06:11:54.431Z,46.67
2019-02-18T06:14:44.133Z,41.30
2019-02-18T06:17:39.601Z,43.00
2019-02-18T06:20:21.311Z,43.07
2019-02-18T06:23:10.943Z,43.73
2019-02-18T06:26:04.986Z,46.80
2019-02-18T06:28:54.637Z,43.87
2019-02-18T06:31:44.591Z,43.07
2019-02-18T06:34:36.183Z,51.83
2019-02-18T06:37:26.293Z,54.17
2019-02-18T06:40:13.232Z,102.80
2019-02-18T06:43:22.517Z,51.57
2019-02-18T06:46:30.979Z,51.00
2019-02-18T06:49:22.087Z,40.57
2019-02-18T06:52:08.374Z,46.93
2019-02-18T06:54:54.545Z,44.07
2019-02-18T06:58:22.603Z,40.57
2019-02-18T07:01:21.257Z,37.50
2019-02-18T07:04:21.121Z,59.20
2019-02-18T07:07:42.623Z,42.53
2019-02-18T07:10:58.662Z,52.73
2019-02-18T07:13:47.563Z,38.30
2019-02-18T07:16:48.213Z,36.83
2019-02-18T07:19:45.588Z,81.30
2019-02-18T07:22:26.994Z,60.67
2019-02-18T07:25:10.320Z,45.00
2019-02-18T07:27:56.238Z,43.97
2019-02-18T07:30:57.518Z,51.80
2019-02-18T07:34:00.917Z,63.67
2019-02-18T07:36:39.431Z,40.63
2019-02-18T07:39:36.918Z,35.33
2019-02-18T07:42:18.647Z,33.13
2019-02-18T07:45:10.224Z,31.47
2019-02-18T07:48:03.080Z,32.77
2019-02-18T07:50:44.768Z,31.50
2019-02-18T07:53:36.987Z,43.93
2019-02-18T07:56:19.915Z,51.93
2019-02-18T07:59:04.135Z,45.27
2019-02-18T08:01:54.046Z,41.73
2019-02-18T08:04:40.893Z,41.57
2019-02-18T08:07:27.406Z,35.43
2019-02-18T08:10:20.212Z,42.27
2019-02-18T08:13:09.969Z,45.00
2019-02-18T08:15:58.107Z,43.20
2019-02-18T08:19:11.359Z,42.20
2019-02-18T08:22:01.021Z,47.13
2019-02-18T08:24:59.891Z,40.00
2019-02-18T08:27:48.471Z,50.57
2019-02-18T08:30:46.300Z,52.80
2019-02-18T08:33:32.729Z,50.07
2019-02-18T08:36:17.026Z,43.43
2019-02-18T08:39:25.350Z,34.87
2019-02-18T08:42:17.053Z,42.37
2019-02-18T08:45:05.193Z,42.63
2019-02-18T08:47:49.414Z,39.50
2019-02-18T08:50:37.688Z,42.43
2019-02-18T08:53:47.841Z,41.37
2019-02-18T08:56:35.684Z,39.60
2019-02-18T08:59:42.074Z,39.10
2019-02-18T09:02:37.742Z,41.37
2019-02-18T09:05:38.367Z,36.93
2019-02-18T09:08:29.164Z,39.03
2019-02-18T09:11:15.194Z,49.70
2019-02-18T09:14:07.366Z,41.20
2019-02-18T09:16:49.290Z,38.27
2019-02-18T09:19:43.278Z,44.67
2019-02-18T09:22:50.725Z,47.43
2019-02-18T09:25:54.737Z,51.57
2019-02-18T09:28:54.397Z,49.47
2019-02-18T09:31:59.257Z,45.97
2019-02-18T09:34:53.318Z,51.43
2019-02-18T09:37:41.268Z,44.40
2019-02-18T09:40:30.287Z,51.27
2019-02-18T09:43:18.812Z,46.57
2019-02-18T09:46:10.675Z,54.33
2019-02-18T09:48:54.968Z,42.10
2019-02-18T09:51:42.648Z,40.13
2019-02-18T09:54:50.240Z,41.70
2019-02-18T09:57:39.586Z,42.97
2019-02-18T10:00:28.192Z,126.27
2019-02-18T10:03:19.826Z,70.37
2019-02-18T10:06:14.618Z,60.03
2019-02-18T10:09:04.905Z,51.07
2019-02-18T10:11:55.003Z,49.83
2019-02-18T10:14:50.433Z,46.03
2019-02-18T10:17:36.639Z,66.83
2019-02-18T10:20:31.782Z,58.40
2019-02-18T10:23:21.368Z,49.73
2019-02-18T10:26:07.138Z,56.27
2019-02-18T10:28:51.470Z,51.43
2019-02-18T10:31:30.892Z,67.57
2019-02-18T10:34:33.076Z,92.73
2019-02-18T10:37:17.238Z,60.20
2019-02-18T10:40:12.865Z,63.50
2019-02-18T10:43:03.336Z,68.30
2019-02-18T10:45:51.270Z,62.37
2019-02-18T10:48:35.883Z,76.93
2019-02-18T10:51:26.033Z,80.90
2019-02-18T10:54:20.254Z,61.33
2019-02-18T10:57:12.156Z,55.73
2019-02-18T11:00:00.502Z,62.10
2019-02-18T11:02:47.761Z,56.40
2019-02-18T11:05:33.790Z,65.53
2019-02-18T11:08:38.566Z,65.63
2019-02-18T11:11:35.806Z,51.30
2019-02-18T11:14:29.553Z,57.33
2019-02-18T11:17:27.846Z,55.93
2019-02-18T11:20:23.821Z,59.50
2019-02-18T11:23:12.831Z,52.23
2019-02-18T11:26:28.141Z,57.60
2019-02-18T11:29:28.900Z,59.83
2019-02-18T11:32:34.829Z,65.50
2019-02-18T11:35:33.137Z,58.73
2019-02-18T11:38:27.662Z,59.67
2019-02-18T11:41:27.317Z,62.30
2019-02-18T11:44:17.837Z,53.97
2019-02-18T11:47:06.690Z,46.97
2019-02-18T11:49:57.379Z,50.40
2019-02-18T11:52:56.403Z,44.63
2019-02-18T11:56:01.211Z,49.00
2019-02-18T11:58:47.822Z,48.13
2019-02-18T12:01:43.160Z,71.03
2019-02-18T12:04:48.489Z,61.27
2019-02-18T12:07:36.496Z,93.33
2019-02-18T12:10:57.118Z,65.63
2019-02-18T12:14:03.227Z,53.40
2019-02-18T12:17:20.443Z,59.13
2019-02-18T12:20:22.774Z,69.67
2019-02-18T12:23:34.760Z,120.93
2019-02-18T12:26:37.457Z,86.87
2019-02-18T12:29:26.483Z,56.73
2019-02-18T12:32:14.348Z,49.43
2019-02-18T12:35:18.560Z,52.53
2019-02-18T12:38:33.789Z,50.33
2019-02-18T12:41:48.845Z,51.63
2019-02-18T12:44:57.614Z,52.10
2019-02-18T12:47:55.251Z,60.47
2019-02-18T12:50:45.622Z,75.87
2019-02-18T12:54:06.711Z,54.73
2019-02-18T12:57:24.075Z,55.93
2019-02-18T13:00:32.642Z,42.80
2019-02-18T13:03:42.662Z,53.10
2019-02-18T13:06:45.184Z,47.33
2019-02-18T13:09:47.154Z,47.97
2019-02-18T13:12:54.052Z,47.23
2019-02-18T13:19:37.580Z,49.27
2019-02-18T13:22:32.587Z,48.50
2019-02-18T13:25:47.459Z,54.63
2019-02-18T13:28:31.736Z,72.80
2019-02-18T13:31:35.339Z,80.57
2019-02-18T13:35:03.428Z,67.60
2019-02-18T13:37:49.482Z,50.83
2019-02-18T13:47:44.637Z,257.97
2019-02-18T13:50:55.290Z,102.70
2019-02-18T13:53:58.903Z,60.77
2019-02-18T13:57:10.259Z,50.87
2019-02-18T14:00:18.022Z,49.70
2019-02-18T14:03:23.499Z,53.03
2019-02-18T14:06:13.451Z,52.60
2019-02-18T14:09:17.142Z,49.77
2019-02-18T14:12:36.281Z,50.73
2019-02-18T14:15:23.183Z,49.50
2019-02-18T14:18:32.182Z,49.03
2019-02-18T14:21:51.472Z,51.20
2019-02-18T14:24:48.720Z,50.60
2019-02-18T14:27:51.062Z,48.30
2019-02-18T14:31:18.044Z,44.63
2019-02-18T14:37:27.356Z,48.23
2019-02-18T14:40:47.216Z,53.80
2019-02-18T14:43:50.983Z,52.00
2019-02-18T14:46:37.673Z,46.07
2019-02-18T14:49:42.904Z,56.87
2019-02-18T14:53:01.659Z,53.67
2019-02-18T14:55:56.984Z,54.17
2019-02-18T14:59:18.372Z,51.13
2019-02-18T15:02:20.867Z,47.67
2019-02-18T15:05:19.758Z,52.03
2019-02-18T15:08:23.792Z,50.00
2019-02-18T15:12:02.651Z,54.07
2019-02-18T15:15:41.025Z,51.03
2019-02-18T15:19:02.292Z,50.20
2019-02-18T15:21:54.996Z,55.40
2019-02-18T15:25:07.749Z,54.17
2019-02-18T15:28:21.686Z,50.50
2019-02-18T15:31:32.277Z,55.20
2019-02-18T15:34:49.085Z,56.60
2019-02-18T15:38:07.589Z,58.03
2019-02-18T15:41:32.745Z,49.13
2019-02-18T15:44:34.607Z,49.93
2019-02-18T15:51:30.562Z,49.73
2019-02-18T15:55:01.829Z,52.73
2019-02-18T15:58:14.163Z,52.33
2019-02-18T16:01:10.197Z,52.80
2019-02-18T16:04:04.135Z,48.50
2019-02-18T16:07:01.808Z,53.57
2019-02-18T16:10:07.851Z,54.83
2019-02-18T16:12:59.519Z,55.50
2019-02-18T16:15:45.569Z,66.10
2019-02-18T16:18:35.036Z,63.30
2019-02-18T16:21:16.983Z,56.27
2019-02-18T16:24:26.227Z,57.60
2019-02-18T16:27:16.856Z,62.00
2019-02-18T16:30:41.144Z,56.23
2019-02-18T16:33:47.581Z,56.97
2019-02-18T16:36:38.900Z,56.00
2019-02-18T16:39:52.680Z,55.07
2019-02-18T16:42:44.375Z,57.13
2019-02-18T16:45:35.139Z,57.30
2019-02-18T16:48:33.776Z,56.17
2019-02-18T16:51:13.767Z,54.63
2019-02-18T16:54:20.476Z,51.93
2019-02-18T16:57:36.085Z,54.57
2019-02-18T17:00:42.379Z,59.00
2019-02-18T17:09:53.290Z,56.17
2019-02-18T17:12:56.873Z,53.53
2019-02-18T17:15:44.165Z,55.70
2019-02-18T17:18:33.898Z,54.83
2019-02-18T17:21:46.176Z,59.90
2019-02-18T17:24:45.939Z,61.80
2019-02-18T17:27:30.955Z,51.73
2019-02-18T17:30:31.650Z,51.80
2019-02-18T17:33:20.232Z,57.63
2019-02-18T17:36:12.067Z,60.13
2019-02-18T17:38:58.456Z,59.60
2019-02-18T17:41:46.812Z,59.03
2019-02-18T17:44:32.862Z,56.10
2019-02-18T17:47:29.234Z,58.57
2019-02-18T17:50:11.342Z,72.87
2019-02-18T17:52:52.416Z,66.13
2019-02-18T17:55:52.782Z,56.70
2019-02-18T17:58:42.656Z,58.97
2019-02-18T18:01:20.917Z,60.73
2019-02-18T18:04:07.022Z,60.57
2019-02-18T18:07:10.398Z,55.97
2019-02-18T18:12:55.457Z,51.37
2019-02-18T18:15:56.556Z,53.63
2019-02-18T18:18:45.155Z,58.13
2019-02-18T18:21:26.781Z,54.37
2019-02-18T18:24:11.759Z,56.00
2019-02-18T18:26:55.244Z,55.30
2019-02-18T18:29:36.747Z,58.50
2019-02-18T18:32:24.353Z,61.57
2019-02-18T18:35:11.164Z,51.13
2019-02-18T18:38:10.230Z,59.97
2019-02-18T18:40:56.173Z,59.77
2019-02-18T18:43:56.781Z,53.03
2019-02-18T18:46:45.031Z,60.13
2019-02-18T18:49:27.758Z,56.10
2019-02-18T18:52:11.512Z,58.27
2019-02-18T18:54:54.143Z,57.97
2019-02-18T18:57:52.530Z,61.50
2019-02-18T19:00:45.812Z,59.63
2019-02-18T19:03:25.940Z,57.27
2019-02-18T19:06:06.797Z,62.23
2019-02-18T19:08:51.710Z,58.60
2019-02-18T19:11:37.288Z,49.07
2019-02-18T19:14:22.424Z,56.13
2019-02-18T19:17:10.511Z,61.13
2019-02-18T19:19:57.750Z,59.23
2019-02-18T19:22:32.624Z,53.40
2019-02-18T19:25:18.540Z,58.73
2019-02-18T19:28:06.112Z,54.83
2019-02-18T19:30:56.727Z,61.20
2019-02-18T19:33:40.723Z,53.80
2019-02-18T19:36:27.522Z,52.20
2019-02-18T19:39:14.652Z,50.27
2019-02-18T19:41:59.477Z,58.97
2019-02-18T19:44:40.403Z,60.33
2019-02-18T19:47:32.381Z,55.90
2019-02-18T19:50:23.612Z,52.43
2019-02-18T19:53:05.699Z,61.50
2019-02-18T19:55:51.532Z,55.67
2019-02-18T19:58:34.237Z,62.90
2019-02-18T20:01:13.442Z,63.23
2019-02-18T20:03:55.124Z,61.03
2019-02-18T20:06:39.666Z,58.70
2019-02-18T20:09:20.668Z,61.63
2019-02-18T20:12:00.840Z,59.97
2019-02-18T20:14:49.061Z,65.33
2019-02-18T20:17:33.918Z,57.93
2019-02-18T20:20:18.629Z,57.53
2019-02-18T20:23:07.572Z,67.73
2019-02-18T20:25:50.429Z,60.87
2019-02-18T20:28:36.478Z,57.87
2019-02-18T20:31:16.729Z,57.90
2019-02-18T20:33:57.760Z,63.27
2019-02-18T20:36:58.785Z,62.03
2019-02-18T20:39:54.887Z,60.27
2019-02-18T20:42:36.547Z,61.57
2019-02-18T20:45:19.149Z,65.80
2019-02-18T20:48:02.264Z,66.87
2019-02-18T20:50:42.391Z,63.10
2019-02-18T20:53:24.132Z,61.33
2019-02-18T20:56:08.118Z,62.17
2019-02-18T20:58:48.880Z,60.60
2019-02-18T21:01:28.841Z,65.87
2019-02-18T21:04:11.580Z,63.50
2019-02-18T21:06:54.543Z,68.23
2019-02-18T21:09:37.486Z,62.70
2019-02-18T21:12:19.853Z,66.37
2019-02-18T21:15:02.039Z,62.97
2019-02-18T21:17:43.252Z,67.97
2019-02-18T21:20:22.485Z,62.27
2019-02-18T21:23:15.337Z,60.67
2019-02-18T21:25:56.699Z,66.17
2019-02-18T21:28:36.537Z,67.30
2019-02-18T21:31:24.708Z,59.17
2019-02-18T21:34:06.015Z,74.90
2019-02-18T21:36:52.157Z,65.30
2019-02-18T21:39:42.981Z,64.93
2019-02-18T21:42:25.142Z,70.27
2019-02-18T21:45:05.612Z,61.93
2019-02-18T21:47:46.714Z,69.23
2019-02-18T21:50:26.247Z,69.50
2019-02-18T21:53:06.319Z,71.70
2019-02-18T21:55:45.825Z,72.53
2019-02-18T21:58:25.957Z,69.13
2019-02-18T22:01:07.494Z,67.47
2019-02-18T22:03:49.155Z,67.67
2019-02-18T22:06:31.756Z,71.17
2019-02-18T22:09:12.956Z,71.50
2019-02-18T22:11:53.269Z,68.13
2019-02-18T22:14:35.762Z,69.63
2019-02-18T22:17:15.597Z,70.77
2019-02-18T22:19:56.368Z,75.37
2019-02-18T22:22:36.646Z,71.93
2019-02-18T22:25:16.296Z,71.77
2019-02-18T22:27:55.947Z,65.33
2019-02-18T22:30:42.982Z,67.40
2019-02-18T22:33:25.531Z,75.13
2019-02-18T22:36:15.607Z,63.03
2019-02-18T22:38:59.532Z,66.67
2019-02-18T22:41:41.025Z,68.33
2019-02-18T22:44:20.471Z,63.43
2019-02-18T22:47:02.154Z,69.43
2019-02-18T22:50:03.267Z,64.97
2019-02-18T22:53:18.187Z,68.07
2019-02-18T22:56:40.828Z,66.77
2019-02-18T22:59:25.795Z,68.73
2019-02-18T23:02:04.548Z,69.37
2019-02-18T23:04:43.627Z,71.97
2019-02-18T23:07:25.199Z,80.40
2019-02-18T23:10:07.186Z,91.90
2019-02-18T23:12:46.426Z,76.23
2019-02-18T23:15:26.795Z,68.87
2019-02-18T23:18:09.747Z,72.33
2019-02-18T23:20:53.684Z,133.93
2019-02-18T23:23:32.767Z,132.00
2019-02-18T23:26:11.956Z,93.67
2019-02-18T23:28:54.553Z,86.33
2019-02-18T23:31:35.785Z,88.83
2019-02-18T23:34:16.439Z,77.13
2019-02-18T23:36:59.014Z,83.50
2019-02-18T23:39:40.058Z,74.37
2019-02-18T23:42:25.933Z,77.73
2019-02-18T23:45:10.039Z,91.13
2019-02-18T23:47:53.068Z,83.80
2019-02-18T23:50:36.990Z,76.73
2019-02-18T23:53:19.281Z,70.23
2019-02-18T23:56:01.460Z,70.47
2019-02-18T23:58:47.600Z,78.83
